Time;durP1;ratioP1;P1;durP2;ratioP2;P2;SDS_P1;SDS_P2;PMS_P1;PMS_P2;Temp;Humidity;BMP_temperature;BMP_pressure;BME280_temperature;BME280_humidity;BME280_pressure;Samples;Min_cycle;Max_cycle;Signal;HPM_P1;HPM_P2
2022/06/10 00:01:23;;;;;;;6.97;1.90;;;;;15.70;101567.00;;;;10433180;28;20263;-79
2022/06/10 00:06:25;;;;;;;8.77;1.90;;;;;15.70;101575.00;;;;10425037;28;20210;-79
2022/06/10 00:11:27;;;;;;;8.50;1.80;;;;;15.60;101570.00;;;;10448784;28;20233;-79
2022/06/10 00:16:29;;;;;;;8.25;2.00;;;;;15.60;101570.00;;;;10448218;28;20198;-79
2022/06/10 00:21:31;;;;;;;8.75;1.88;;;;;15.60;101566.00;;;;10437295;28;20213;-79
2022/06/10 00:26:34;;;;;;;11.13;1.70;;;;;15.60;101560.00;;;;10433004;28;20549;-79
2022/06/10 00:31:36;;;;;;;7.03;1.83;;;;;15.60;101571.00;;;;10427863;28;20304;-79
2022/06/10 00:36:38;;;;;;;11.13;2.40;;;;;15.60;101564.00;;;;10446212;28;20285;-79
2022/06/10 00:41:42;;;;;;;5.70;1.50;;;;;15.60;101570.00;;;;10447416;28;20251;-80
2022/06/10 00:46:44;;;;;;;12.30;2.30;;;;;15.60;101562.00;;;;10446600;28;20856;-79
2022/06/10 00:51:53;;;;;;;7.50;1.80;;;;;15.60;101565.00;;;;10423423;28;20217;-79
2022/06/10 00:57:05;;;;;;;7.03;1.88;;;;;15.60;101560.00;;;;10405201;28;20182;-79
2022/06/10 01:02:14;;;;;;;9.30;2.47;;;;;15.60;101564.00;;;;10448029;28;20201;-79
2022/06/10 01:07:23;;;;;;;8.57;2.33;;;;;15.50;101555.00;;;;10422339;28;20669;-79
2022/06/10 01:12:50;;;;;;;11.73;2.90;;;;;15.50;101563.00;;;;10430077;28;20684;-79
2022/06/10 01:18:01;;;;;;;9.40;2.37;;;;;15.50;101567.00;;;;10422841;28;20213;-79
2022/06/10 01:23:21;;;;;;;13.93;2.13;;;;;15.50;101567.00;;;;10448663;28;20276;-79
2022/06/10 01:28:57;;;;;;;7.30;1.97;;;;;15.50;101557.00;;;;10420439;28;1104263;-79
2022/06/10 01:34:07;;;;;;;10.57;2.03;;;;;15.60;101560.00;;;;10424291;28;20206;-79
2022/06/10 01:39:12;;;;;;;4.97;1.87;;;;;15.60;101552.00;;;;10422255;28;20206;-79
2022/06/10 01:44:28;;;;;;;7.05;3.08;;;;;15.60;101555.00;;;;10428468;28;20694;-79
2022/06/10 01:49:37;;;;;;;7.18;1.90;;;;;15.60;101562.00;;;;10423783;28;20242;-78
2022/06/10 01:54:51;;;;;;;12.53;2.40;;;;;15.50;101564.00;;;;10404591;28;20197;-79
2022/06/10 02:00:09;;;;;;;11.80;2.47;;;;;15.50;101564.00;;;;10428132;28;20204;-79
2022/06/10 02:05:16;;;;;;;13.60;3.50;;;;;15.60;101559.00;;;;10464856;28;20294;-79
2022/06/10 02:10:29;;;;;;;11.73;2.25;;;;;15.60;101563.00;;;;10441218;28;20230;-79
2022/06/10 02:15:38;;;;;;;7.33;2.57;;;;;15.60;101569.00;;;;10451816;28;20245;-79
2022/06/10 02:20:51;;;;;;;14.50;3.43;;;;;15.60;101573.00;;;;10470391;28;20186;-79
2022/06/10 02:25:59;;;;;;;9.10;2.88;;;;;15.60;101578.00;;;;10451726;28;20258;-79
2022/06/10 02:31:08;;;;;;;12.23;3.35;;;;;15.60;101580.00;;;;10418532;28;20210;-79
2022/06/10 02:36:45;;;;;;;8.50;3.40;;;;;15.60;101591.00;;;;10453030;28;20181;-79
2022/06/10 02:42:06;;;;;;;10.23;3.55;;;;;15.50;101584.00;;;;10467940;28;20264;-79
2022/06/10 02:47:42;;;;;;;10.73;3.60;;;;;15.60;101586.00;;;;10452691;28;20810;-79
2022/06/10 02:52:45;;;;;;;7.55;3.25;;;;;15.60;101588.00;;;;10468599;28;20220;-79
2022/06/10 03:03:16;;;;;;;11.13;3.20;;;;;15.60;101596.00;;;;10467914;28;20620;-79
2022/06/10 03:08:34;;;;;;;10.90;3.10;;;;;15.60;101593.00;;;;10426093;28;20218;-79
2022/06/10 03:13:42;;;;;;;7.00;3.20;;;;;15.60;101590.00;;;;10425210;28;20870;-79
2022/06/10 03:19:16;;;;;;;9.57;2.92;;;;;15.60;101586.00;;;;10443708;28;20277;-79
2022/06/10 03:24:55;;;;;;;10.63;2.67;;;;;15.60;101582.00;;;;10467803;28;20247;-78
2022/06/10 03:30:07;;;;;;;9.40;2.22;;;;;15.60;101587.00;;;;10409770;28;20257;-78
2022/06/10 03:35:23;;;;;;;8.55;2.50;;;;;15.70;101596.00;;;;10404654;28;20571;-79
2022/06/10 03:40:33;;;;;;;10.32;1.85;;;;;15.60;101591.00;;;;10427540;28;20179;-79
2022/06/10 03:45:49;;;;;;;8.60;2.00;;;;;15.60;101591.00;;;;10424911;28;20653;-78
2022/06/10 03:50:52;;;;;;;5.85;1.60;;;;;15.60;101585.00;;;;10424412;28;20217;-79
2022/06/10 03:55:54;;;;;;;7.40;1.50;;;;;15.60;101597.00;;;;10408572;28;20252;-79
2022/06/10 04:00:58;;;;;;;5.32;1.30;;;;;15.70;101596.00;;;;10442274;28;20273;-79
2022/06/10 04:06:00;;;;;;;8.27;2.00;;;;;15.70;101602.00;;;;10448999;28;20229;-79
2022/06/10 04:11:22;;;;;;;6.03;2.00;;;;;15.80;101596.00;;;;10451946;28;20202;-79
2022/06/10 04:16:26;;;;;;;4.00;1.20;;;;;15.90;101598.00;;;;10424809;28;20195;-79
2022/06/10 04:21:28;;;;;;;4.60;1.70;;;;;15.90;101597.00;;;;10408133;28;20377;-79
2022/06/10 04:26:30;;;;;;;7.63;1.25;;;;;16.00;101597.00;;;;10439686;28;20233;-79
2022/06/10 04:31:32;;;;;;;7.20;1.63;;;;;16.00;101607.00;;;;10409795;28;20228;-78
2022/06/10 04:36:34;;;;;;;5.68;1.42;;;;;16.00;101615.00;;;;10453140;28;20225;-80
2022/06/10 04:41:38;;;;;;;4.63;1.65;;;;;16.00;101603.00;;;;10441154;28;20248;-79
2022/06/10 04:46:42;;;;;;;6.18;1.88;;;;;16.00;101605.00;;;;10475155;28;20192;-79
2022/06/10 04:51:44;;;;;;;9.10;1.80;;;;;16.00;101599.00;;;;10480784;28;20213;-79
2022/06/10 04:56:46;;;;;;;6.65;1.48;;;;;16.10;101601.00;;;;10439848;28;20612;-80
2022/06/10 05:01:49;;;;;;;8.02;1.77;;;;;16.10;101598.00;;;;10434627;28;20710;-79
2022/06/10 05:06:51;;;;;;;8.75;1.67;;;;;16.30;101588.00;;;;10447197;28;20951;-79
2022/06/10 05:11:53;;;;;;;4.78;1.33;;;;;16.50;101593.00;;;;10464042;28;20232;-79
2022/06/10 05:16:56;;;;;;;11.70;1.65;;;;;16.60;101588.00;;;;10434775;28;20194;-79
2022/06/10 05:21:58;;;;;;;9.02;2.13;;;;;16.80;101596.00;;;;10406883;28;20213;-79
2022/06/10 05:27:00;;;;;;;8.75;1.88;;;;;16.90;101588.00;;;;10405760;28;20688;-78
2022/06/10 05:32:03;;;;;;;6.63;2.08;;;;;17.00;101592.00;;;;10455131;28;20202;-79
2022/06/10 05:37:05;;;;;;;14.07;2.90;;;;;17.10;101595.00;;;;10449300;28;20684;-78
2022/06/10 05:42:09;;;;;;;10.68;2.13;;;;;17.30;101589.00;;;;10455547;28;20178;-78
2022/06/10 05:47:18;;;;;;;6.15;1.98;;;;;17.50;101594.00;;;;10439748;28;20196;-78
2022/06/10 05:52:24;;;;;;;7.47;1.98;;;;;17.70;101592.00;;;;10444948;28;20202;-78
2022/06/10 05:57:27;;;;;;;9.80;1.95;;;;;17.90;101588.00;;;;10435156;28;20277;-79
2022/06/10 06:02:29;;;;;;;6.43;1.88;;;;;18.20;101597.00;;;;10434840;28;20281;-78
2022/06/10 06:07:32;;;;;;;7.10;1.98;;;;;18.40;101589.00;;;;10442515;28;20263;-79
2022/06/10 06:12:34;;;;;;;4.68;2.03;;;;;18.50;101599.00;;;;10437300;28;20209;-79
2022/06/10 06:17:36;;;;;;;6.25;1.88;;;;;18.50;101600.00;;;;10400426;28;20225;-78
2022/06/10 06:22:38;;;;;;;10.50;1.85;;;;;18.60;101612.00;;;;10436285;28;20197;-78
2022/06/10 06:27:42;;;;;;;7.35;1.60;;;;;18.50;101620.00;;;;10465463;28;20288;-78
2022/06/10 06:32:44;;;;;;;5.00;1.90;;;;;18.50;101625.00;;;;10434164;28;20206;-78
2022/06/10 06:37:46;;;;;;;5.85;1.88;;;;;18.70;101626.00;;;;10449854;28;20653;-78
2022/06/10 06:42:49;;;;;;;7.10;2.30;;;;;18.90;101636.00;;;;10444869;28;20568;-77
2022/06/10 06:47:51;;;;;;;8.10;1.90;;;;;19.00;101633.00;;;;10459663;28;20247;-77
2022/06/10 06:52:53;;;;;;;5.35;1.70;;;;;19.30;101635.00;;;;10464980;28;20211;-78
2022/06/10 06:58:11;;;;;;;7.78;2.03;;;;;19.50;101636.00;;;;10465961;28;20193;-78
2022/06/10 07:03:20;;;;;;;9.30;2.15;;;;;19.80;101631.00;;;;10451588;28;20232;-77
2022/06/10 07:08:30;;;;;;;8.70;2.13;;;;;20.40;101636.00;;;;10467778;28;20263;-77
2022/06/10 07:13:33;;;;;;;6.50;2.03;;;;;20.90;101647.00;;;;10456569;28;20205;-77
2022/06/10 07:18:36;;;;;;;7.03;1.60;;;;;20.90;101653.00;;;;10410210;28;20183;-78
2022/06/10 07:23:38;;;;;;;7.88;2.53;;;;;20.90;101646.00;;;;10424646;28;20846;-77
2022/06/10 07:28:41;;;;;;;6.13;1.58;;;;;21.20;101648.00;;;;10438499;28;20275;-77
2022/06/10 07:33:42;;;;;;;8.60;2.50;;;;;21.30;101653.00;;;;10424644;28;20276;-78
2022/06/10 07:38:44;;;;;;;6.97;2.83;;;;;20.80;101649.00;;;;10441508;28;20202;-78
2022/06/10 07:43:46;;;;;;;10.02;2.40;;;;;21.50;101638.00;;;;10431767;28;20194;-78
2022/06/10 07:48:49;;;;;;;7.03;2.00;;;;;23.90;101634.00;;;;10441419;28;20186;-77
2022/06/10 07:53:51;;;;;;;9.18;3.00;;;;;24.90;101644.00;;;;10407600;28;20612;-78
2022/06/10 07:58:53;;;;;;;10.70;2.65;;;;;25.00;101645.00;;;;10445864;28;20251;-78
2022/06/10 08:03:56;;;;;;;9.70;2.83;;;;;24.30;101655.00;;;;10448916;28;20560;-78
2022/06/10 08:08:58;;;;;;;8.63;2.35;;;;;23.90;101653.00;;;;10464818;28;20199;-78
2022/06/10 08:14:00;;;;;;;5.93;2.55;;;;;23.30;101657.00;;;;10448151;28;20668;-78
2022/06/10 08:19:03;;;;;;;9.48;2.72;;;;;22.80;101667.00;;;;10409863;28;20249;-78
2022/06/10 08:24:06;;;;;;;10.77;2.63;;;;;23.20;101670.00;;;;10423527;28;20196;-77
2022/06/10 08:29:10;;;;;;;13.27;3.47;;;;;23.60;101664.00;;;;10459467;28;20205;-77
2022/06/10 08:34:12;;;;;;;6.10;2.47;;;;;24.00;101654.00;;;;10465154;28;20209;-78
2022/06/10 08:39:14;;;;;;;10.63;3.40;;;;;24.30;101661.00;;;;10431385;28;20197;-78
2022/06/10 08:44:29;;;;;;;12.15;3.38;;;;;25.80;101652.00;;;;10446816;28;20748;-78
2022/06/10 08:49:40;;;;;;;6.40;2.15;;;;;26.70;101650.00;;;;10453826;28;20660;-78
2022/06/10 08:55:03;;;;;;;6.72;2.35;;;;;27.70;101660.00;;;;10406379;28;20206;-78
2022/06/10 09:00:30;;;;;;;9.32;3.33;;;;;27.20;101660.00;;;;10422445;28;20216;-78
2022/06/10 09:05:54;;;;;;;9.90;2.80;;;;;27.70;101649.00;;;;10465922;28;20288;-78
2022/06/10 09:11:20;;;;;;;7.05;2.70;;;;;28.60;101651.00;;;;10446395;28;20284;-78
2022/06/10 09:16:51;;;;;;;7.97;3.15;;;;;29.50;101650.00;;;;10460792;28;20194;-78
2022/06/10 09:22:21;;;;;;;11.60;2.92;;;;;30.20;101662.00;;;;10450260;28;20243;-78
2022/06/10 09:27:30;;;;;;;8.63;3.40;;;;;30.10;101657.00;;;;10463552;28;20209;-78
2022/06/10 09:33:00;;;;;;;8.00;3.20;;;;;30.40;101643.00;;;;10446510;28;20557;-79
2022/06/10 09:38:08;;;;;;;7.10;2.63;;;;;30.80;101652.00;;;;10461261;28;20271;-78
2022/06/10 09:43:37;;;;;;;7.38;2.92;;;;;31.50;101649.00;;;;10445901;28;20257;-78
2022/06/10 09:49:06;;;;;;;8.30;2.80;;;;;31.70;101654.00;;;;10476668;28;20229;-79
2022/06/10 09:54:20;;;;;;;10.60;2.85;;;;;29.80;101661.00;;;;10445536;28;20324;-79
2022/06/10 10:00:05;;;;;;;7.47;2.53;;;;;28.60;101660.00;;;;10454003;28;20256;-79
2022/06/10 10:05:13;;;;;;;9.48;2.33;;;;;28.50;101664.00;;;;10378447;28;20274;-79
2022/06/10 10:10:25;;;;;;;5.43;2.50;;;;;27.60;101656.00;;;;10462754;28;20221;-79
2022/06/10 10:15:50;;;;;;;12.30;3.40;;;;;29.90;101644.00;;;;10446037;28;20757;-78
2022/06/10 10:21:10;;;;;;;8.63;3.83;;;;;31.50;101649.00;;;;10444983;28;20611;-78
2022/06/10 10:26:37;;;;;;;8.57;4.03;;;;;31.20;101646.00;;;;10466659;28;20188;-78
2022/06/10 10:31:45;;;;;;;11.27;4.10;;;;;32.10;101649.00;;;;10452677;28;20209;-78
2022/06/10 10:36:52;;;;;;;7.50;4.07;;;;;31.30;101656.00;;;;10443884;28;20197;-79
2022/06/10 10:41:58;;;;;;;10.00;4.55;;;;;31.60;101630.00;;;;10427006;28;20652;-78
2022/06/10 10:47:09;;;;;;;7.28;4.15;;;;;32.20;101637.00;;;;10411072;28;20202;-79
2022/06/10 10:52:23;;;;;;;8.27;4.22;;;;;32.00;101627.00;;;;10467422;28;20190;-79
2022/06/10 10:57:32;;;;;;;10.75;4.35;;;;;32.20;101630.00;;;;10451735;28;20193;-79
2022/06/10 11:02:37;;;;;;;9.70;3.78;;;;;32.50;101637.00;;;;10485035;28;20880;-79
2022/06/10 11:07:39;;;;;;;7.47;3.75;;;;;32.50;101619.00;;;;10466951;28;20304;-79
2022/06/10 11:12:41;;;;;;;6.60;3.58;;;;;31.20;101627.00;;;;10483774;28;20224;-79
2022/06/10 11:17:49;;;;;;;10.48;3.42;;;;;30.30;101631.00;;;;10468610;28;20672;-79
2022/06/10 11:23:11;;;;;;;10.07;4.43;;;;;29.90;101631.00;;;;10424730;28;20806;-79
2022/06/10 11:28:23;;;;;;;10.18;2.50;;;;;28.90;101629.00;;;;10426142;28;20198;-79
2022/06/10 11:33:38;;;;;;;7.88;3.28;;;;;29.00;101609.00;;;;10467885;28;20251;-79
2022/06/10 11:38:54;;;;;;;9.75;3.40;;;;;29.10;101606.00;;;;10441614;28;20240;-79
2022/06/10 11:44:16;;;;;;;9.65;3.55;;;;;31.50;101606.00;;;;10426622;28;20210;-79
2022/06/10 11:49:32;;;;;;;9.20;3.47;;;;;30.60;101607.00;;;;10410281;28;20182;-78
2022/06/10 11:54:47;;;;;;;5.78;2.95;;;;;29.60;101597.00;;;;10447644;28;20197;-79
2022/06/10 11:59:54;;;;;;;8.05;2.83;;;;;28.40;101597.00;;;;10483706;28;20186;-79
2022/06/10 12:05:20;;;;;;;6.80;2.80;;;;;27.60;101581.00;;;;10453074;28;20217;-79
2022/06/10 12:10:25;;;;;;;4.05;2.10;;;;;27.30;101586.00;;;;10465582;28;20189;-79
2022/06/10 12:15:37;;;;;;;6.60;2.05;;;;;28.50;101573.00;;;;10448639;28;20194;-79
2022/06/10 12:20:47;;;;;;;5.90;2.10;;;;;29.60;101580.00;;;;10428443;28;20198;-79
2022/06/10 12:26:07;;;;;;;5.32;2.60;;;;;28.90;101585.00;;;;10464611;28;20209;-78
2022/06/10 12:31:40;;;;;;;10.43;2.65;;;;;29.10;101582.00;;;;10481848;28;20272;-79
2022/06/10 12:36:52;;;;;;;5.40;2.00;;;;;30.10;101570.00;;;;10413509;28;20254;-79
2022/06/10 12:42:13;;;;;;;6.47;2.45;;;;;30.20;101573.00;;;;10439378;28;20301;-79
2022/06/10 12:47:21;;;;;;;4.30;1.80;;;;;30.60;101570.00;;;;10441386;28;20206;-79
2022/06/10 12:52:30;;;;;;;6.03;2.00;;;;;30.80;101562.00;;;;10422667;28;20281;-79
2022/06/10 12:57:46;;;;;;;5.85;1.95;;;;;30.60;101558.00;;;;10422372;28;20217;-79
2022/06/10 13:03:14;;;;;;;5.88;1.52;;;;;30.00;101561.00;;;;10417453;28;20267;-79
2022/06/10 13:08:48;;;;;;;4.55;1.60;;;;;28.30;101564.00;;;;10438985;28;20221;-79
2022/06/10 13:14:18;;;;;;;7.63;1.77;;;;;27.30;101560.00;;;;10434045;28;20233;-79
2022/06/10 13:19:38;;;;;;;5.90;2.03;;;;;28.00;101557.00;;;;10439040;28;20189;-79
2022/06/10 13:24:40;;;;;;;6.18;1.35;;;;;28.50;101556.00;;;;10438439;28;20194;-79
2022/06/10 13:29:49;;;;;;;5.32;1.42;;;;;28.10;101558.00;;;;10437880;28;20197;-79
2022/06/10 13:34:56;;;;;;;4.40;1.38;;;;;28.10;101551.00;;;;10440236;28;20232;-79
2022/06/10 13:40:01;;;;;;;6.30;1.75;;;;;28.10;101566.00;;;;10422153;28;20225;-79
2022/06/10 13:45:21;;;;;;;5.38;1.60;;;;;27.80;101566.00;;;;10433801;28;20259;-79
2022/06/10 13:50:46;;;;;;;3.10;1.30;;;;;27.20;101568.00;;;;10456242;28;20243;-79
2022/06/10 13:55:55;;;;;;;3.90;1.42;;;;;27.70;101560.00;;;;10438371;28;20542;-79
2022/06/10 14:01:01;;;;;;;5.00;1.55;;;;;28.20;101557.00;;;;10430232;28;20200;-79
2022/06/10 14:06:15;;;;;;;4.78;1.50;;;;;27.80;101564.00;;;;10470380;28;20251;-79
2022/06/10 14:11:36;;;;;;;3.88;1.80;;;;;26.60;101565.00;;;;10470682;28;20628;-79
2022/06/10 14:16:39;;;;;;;5.20;1.75;;;;;26.50;101564.00;;;;10453952;28;20780;-79
2022/06/10 14:21:42;;;;;;;5.90;1.80;;;;;26.70;101552.00;;;;10427560;28;20202;-80
2022/06/10 14:26:54;;;;;;;6.88;1.63;;;;;26.40;101560.00;;;;10445475;28;20723;-79
2022/06/10 14:32:02;;;;;;;4.88;1.70;;;;;25.60;101560.00;;;;10438025;28;20190;-79
2022/06/10 14:37:23;;;;;;;5.10;1.85;;;;;25.50;101554.00;;;;10452319;28;20332;-79
2022/06/10 14:42:25;;;;;;;4.63;1.83;;;;;27.40;101545.00;;;;10435418;28;20693;-79
2022/06/10 14:47:29;;;;;;;3.92;2.03;;;;;29.00;101549.00;;;;10444546;28;20653;-79
2022/06/10 14:52:41;;;;;;;5.40;2.35;;;;;28.20;101552.00;;;;10424516;28;20260;-79
2022/06/10 14:57:54;;;;;;;7.60;2.03;;;;;27.30;101552.00;;;;10411909;28;20248;-79
2022/06/10 15:02:56;;;;;;;5.88;2.42;;;;;27.20;101547.00;;;;10424894;28;20201;-79
2022/06/10 15:08:00;;;;;;;8.20;2.40;;;;;28.00;101543.00;;;;10453286;28;20221;-80
2022/06/10 15:13:03;;;;;;;5.20;2.40;;;;;29.30;101540.00;;;;10450765;28;20209;-79
2022/06/10 15:18:05;;;;;;;5.90;2.00;;;;;28.50;101547.00;;;;10468377;28;20186;-79
2022/06/10 15:23:10;;;;;;;6.15;2.25;;;;;28.70;101543.00;;;;10467507;28;20205;-79
2022/06/10 15:28:19;;;;;;;7.10;1.95;;;;;28.10;101537.00;;;;10450283;28;20656;-80
2022/06/10 15:33:22;;;;;;;5.88;2.00;;;;;28.20;101542.00;;;;10447638;28;20198;-79
2022/06/10 15:43:57;;;;;;;5.28;1.73;;;;;27.80;101535.00;;;;10425558;28;20229;-78
2022/06/10 15:48:59;;;;;;;4.68;1.50;;;;;27.60;101537.00;;;;10422463;28;20203;-79
2022/06/10 15:54:06;;;;;;;5.40;1.38;;;;;27.30;101541.00;;;;10430501;28;20645;-79
2022/06/10 15:59:20;;;;;;;3.25;1.30;;;;;27.90;101537.00;;;;10406277;28;20241;-78
2022/06/10 16:04:25;;;;;;;3.92;1.40;;;;;27.40;101534.00;;;;10446793;28;20259;-79
2022/06/10 16:09:27;;;;;;;7.28;1.70;;;;;26.70;101540.00;;;;10429635;28;20610;-80
2022/06/10 16:14:36;;;;;;;5.28;1.50;;;;;26.40;101534.00;;;;10423095;28;20247;-79
2022/06/10 16:19:38;;;;;;;3.05;1.42;;;;;26.30;101534.00;;;;10458129;28;20285;-80
2022/06/10 16:24:44;;;;;;;3.88;1.60;;;;;26.70;101525.00;;;;10436633;28;20277;-79
2022/06/10 16:29:57;;;;;;;3.78;1.60;;;;;26.40;101536.00;;;;10450515;28;20552;-79
2022/06/10 16:34:59;;;;;;;3.10;1.13;;;;;25.50;101533.00;;;;10414486;28;20961;-79
2022/06/10 16:40:02;;;;;;;5.43;1.48;;;;;24.90;101535.00;;;;10448457;28;20199;-79
2022/06/10 16:45:19;;;;;;;3.75;1.45;;;;;25.00;101524.00;;;;10434330;28;20624;-79
2022/06/10 16:50:24;;;;;;;4.25;1.48;;;;;25.60;101525.00;;;;10451187;28;20220;-79
2022/06/10 16:55:27;;;;;;;3.13;1.38;;;;;25.20;101539.00;;;;10446421;28;20185;-79
2022/06/10 17:00:32;;;;;;;5.90;1.50;;;;;24.70;101535.00;;;;10446564;28;20200;-79
2022/06/10 17:05:37;;;;;;;2.80;1.23;;;;;24.30;101543.00;;;;10430382;28;20589;-79
2022/06/10 17:10:44;;;;;;;4.43;1.35;;;;;23.80;101539.00;;;;10439393;28;20190;-80
2022/06/10 17:15:47;;;;;;;5.20;1.20;;;;;23.60;101541.00;;;;10422264;28;20188;-78
2022/06/10 17:20:54;;;;;;;4.53;1.23;;;;;23.80;101550.00;;;;10409185;28;20524;-79
2022/06/10 17:26:33;;;;;;;3.70;1.35;;;;;23.70;101550.00;;;;10437368;28;20327;-79
2022/06/10 17:31:41;;;;;;;3.47;1.20;;;;;23.50;101551.00;;;;10425775;28;20208;-79
2022/06/10 17:36:43;;;;;;;8.48;1.50;;;;;23.30;101554.00;;;;10428860;28;20285;-79
2022/06/10 17:41:51;;;;;;;3.63;1.45;;;;;23.30;101544.00;;;;10440868;28;20540;-79
2022/06/10 17:46:56;;;;;;;2.22;1.05;;;;;23.30;101556.00;;;;10459936;28;20194;-79
2022/06/10 17:52:03;;;;;;;5.22;1.60;;;;;23.30;101561.00;;;;10480125;28;21146;-79
2022/06/10 17:57:33;;;;;;;5.15;1.70;;;;;23.20;101556.00;;;;10455442;28;20216;-78
2022/06/10 18:02:40;;;;;;;4.97;1.40;;;;;23.10;101558.00;;;;10452652;28;20225;-79
2022/06/10 18:07:42;;;;;;;6.32;1.83;;;;;23.10;101563.00;;;;10467954;28;20704;-79
2022/06/10 18:12:51;;;;;;;7.47;1.60;;;;;22.90;101564.00;;;;10447344;28;20201;-79
2022/06/10 18:17:54;;;;;;;5.78;1.55;;;;;22.70;101558.00;;;;10454806;28;20201;-78
2022/06/10 18:22:58;;;;;;;5.57;1.40;;;;;22.40;101553.00;;;;10450735;28;20286;-79
2022/06/10 18:28:09;;;;;;;3.22;1.70;;;;;22.20;101573.00;;;;10431653;28;20240;-79
2022/06/10 18:33:13;;;;;;;4.78;1.88;;;;;22.10;101561.00;;;;10422691;28;20193;-78
2022/06/10 18:38:18;;;;;;;5.65;1.65;;;;;22.00;101556.00;;;;10427979;28;20669;-78
2022/06/10 18:43:29;;;;;;;4.82;2.05;;;;;21.80;101561.00;;;;10437142;28;20213;-78
2022/06/10 18:48:35;;;;;;;4.32;1.48;;;;;21.70;101573.00;;;;10436584;28;20205;-78
2022/06/10 18:53:38;;;;;;;5.07;1.83;;;;;21.60;101561.00;;;;10449347;28;20296;-78
2022/06/10 18:58:40;;;;;;;5.78;1.95;;;;;21.60;101567.00;;;;10416400;28;20205;-79
2022/06/10 19:03:42;;;;;;;6.55;1.80;;;;;21.50;101565.00;;;;10434942;28;20295;-78
2022/06/10 19:08:48;;;;;;;4.72;1.63;;;;;21.30;101562.00;;;;10433799;28;20225;-78
2022/06/10 19:13:52;;;;;;;10.25;1.90;;;;;21.20;101568.00;;;;10444050;28;20197;-78
2022/06/10 19:19:03;;;;;;;6.63;2.28;;;;;21.20;101566.00;;;;10446658;28;20193;-79
2022/06/10 19:24:07;;;;;;;4.43;1.80;;;;;21.00;101569.00;;;;10459095;28;20216;-79
2022/06/10 19:29:10;;;;;;;5.85;2.20;;;;;20.90;101574.00;;;;10447587;28;20575;-79
2022/06/10 19:34:23;;;;;;;4.95;1.85;;;;;20.80;101577.00;;;;10431141;28;20182;-79
2022/06/10 19:39:26;;;;;;;5.88;2.08;;;;;20.70;101574.00;;;;10444291;28;20258;-78
2022/06/10 19:44:35;;;;;;;5.75;1.70;;;;;20.60;101590.00;;;;10409358;28;20206;-79
2022/06/10 19:49:37;;;;;;;6.60;2.28;;;;;20.50;101584.00;;;;10444882;28;20194;-79
2022/06/10 19:54:40;;;;;;;8.45;2.28;;;;;20.40;101589.00;;;;10452052;28;20202;-79
2022/06/10 19:59:42;;;;;;;2.53;1.50;;;;;20.30;101598.00;;;;10434230;28;20214;-79
2022/06/10 20:04:44;;;;;;;7.82;1.92;;;;;20.10;101599.00;;;;10428934;28;20217;-79
2022/06/10 20:09:51;;;;;;;6.97;2.40;;;;;20.00;101603.00;;;;10444043;28;20324;-79
2022/06/10 20:14:53;;;;;;;7.07;2.35;;;;;19.90;101615.00;;;;10438627;28;20653;-79
2022/06/10 20:19:56;;;;;;;7.88;1.77;;;;;19.90;101615.00;;;;10416546;28;20198;-79
2022/06/10 20:25:03;;;;;;;6.60;2.40;;;;;19.90;101620.00;;;;10447014;28;20210;-79
2022/06/10 20:30:08;;;;;;;4.07;1.98;;;;;19.90;101621.00;;;;10431133;28;20194;-79
2022/06/10 20:35:27;;;;;;;5.55;2.40;;;;;20.00;101633.00;;;;10408036;28;20715;-79
2022/06/10 20:40:39;;;;;;;5.63;2.28;;;;;19.90;101628.00;;;;10425378;28;20190;-80
2022/06/10 20:45:49;;;;;;;4.15;2.15;;;;;19.90;101624.00;;;;10435466;28;20259;-79
2022/06/10 20:50:54;;;;;;;6.72;2.22;;;;;19.90;101623.00;;;;10436186;28;20205;-79
2022/06/10 20:56:02;;;;;;;9.18;2.33;;;;;19.60;101618.00;;;;10458234;28;20603;-79
2022/06/10 21:01:34;;;;;;;5.28;2.30;;;;;19.30;101609.00;;;;10432323;28;20189;-79
2022/06/10 21:12:06;;;;;;;6.90;2.30;;;;;18.90;101601.00;;;;10437021;28;20221;-79
2022/06/10 21:17:39;;;;;;;7.00;2.40;;;;;18.80;101629.00;;;;10420813;28;20190;-80
2022/06/10 21:23:14;;;;;;;5.88;2.72;;;;;18.80;101628.00;;;;10415227;28;20244;-80
2022/06/10 21:28:28;;;;;;;8.27;3.00;;;;;18.80;101630.00;;;;10413354;28;20645;-80
2022/06/10 21:33:41;;;;;;;7.82;3.08;;;;;18.60;101623.00;;;;10425465;28;20276;-80
2022/06/10 21:38:56;;;;;;;5.07;3.15;;;;;18.50;101634.00;;;;10428654;28;20197;-79
2022/06/10 21:44:11;;;;;;;5.25;3.05;;;;;18.30;101633.00;;;;10448669;28;20205;-80
2022/06/10 21:49:30;;;;;;;8.45;3.00;;;;;18.10;101635.00;;;;10437213;28;20248;-80
2022/06/10 21:54:33;;;;;;;8.40;3.28;;;;;17.90;101636.00;;;;10460915;28;20283;-79
2022/06/10 21:59:35;;;;;;;9.20;3.17;;;;;17.70;101638.00;;;;10430818;28;20718;-79
2022/06/10 22:04:40;;;;;;;4.45;2.72;;;;;17.60;101635.00;;;;10411800;28;20300;-79
2022/06/10 22:09:53;;;;;;;8.07;2.88;;;;;17.50;101643.00;;;;10448125;28;20276;-79
2022/06/10 22:14:55;;;;;;;6.60;3.33;;;;;17.30;101640.00;;;;10441779;28;20190;-79
2022/06/10 22:20:21;;;;;;;3.88;3.03;;;;;17.30;101645.00;;;;10468975;28;20194;-79
2022/06/10 22:25:30;;;;;;;6.18;3.30;;;;;17.20;101648.00;;;;10473092;28;20740;-79
2022/06/10 22:30:36;;;;;;;11.80;3.20;;;;;17.10;101644.00;;;;10505832;28;20232;-79
2022/06/10 22:35:59;;;;;;;4.63;3.50;;;;;17.00;101641.00;;;;10415528;28;20190;-79
2022/06/10 22:41:03;;;;;;;6.05;3.72;;;;;16.90;101648.00;;;;10436670;28;20598;-79
2022/06/10 22:46:06;;;;;;;7.25;3.38;;;;;16.80;101650.00;;;;10468949;28;20224;-79
2022/06/10 22:51:30;;;;;;;6.15;3.63;;;;;16.70;101647.00;;;;10443594;28;20240;-79
2022/06/10 22:56:33;;;;;;;8.07;3.55;;;;;16.60;101642.00;;;;10460439;28;20198;-79
2022/06/10 23:01:35;;;;;;;6.57;4.32;;;;;16.60;101644.00;;;;10461082;28;20226;-79
2022/06/10 23:06:40;;;;;;;9.90;4.00;;;;;16.60;101652.00;;;;10475063;28;20262;-79
2022/06/10 23:12:01;;;;;;;7.38;4.18;;;;;16.50;101659.00;;;;10464770;28;20200;-79
2022/06/10 23:17:05;;;;;;;6.00;3.83;;;;;16.40;101658.00;;;;10472298;28;20246;-79
2022/06/10 23:22:15;;;;;;;10.65;4.00;;;;;16.40;101659.00;;;;10471647;28;20664;-79
2022/06/10 23:27:23;;;;;;;6.97;3.55;;;;;16.30;101660.00;;;;10467049;28;20769;-79
2022/06/10 23:32:30;;;;;;;7.97;4.35;;;;;16.10;101656.00;;;;10446422;28;20202;-79
2022/06/10 23:37:35;;;;;;;12.77;4.07;;;;;16.00;101662.00;;;;10452068;28;20186;-79
2022/06/10 23:42:37;;;;;;;8.20;4.77;;;;;15.90;101668.00;;;;10459043;28;20189;-79
2022/06/10 23:53:04;;;;;;;6.93;4.23;;;;;15.70;101686.00;;;;10449808;28;20272;-79
